createdAt,value
2019-04-22T00:00:36.768Z,5.03
2019-04-22T00:03:09.196Z,5.00
2019-04-22T00:05:54.956Z,4.67
2019-04-22T00:08:30.679Z,4.27
2019-04-22T00:11:06.358Z,4.20
2019-04-22T00:13:43.887Z,3.80
2019-04-22T00:15:59.296Z,4.40
2019-04-22T00:18:50.426Z,4.23
2019-04-22T00:21:04.730Z,4.00
2019-04-22T00:23:39.199Z,3.93
2019-04-22T00:26:08.760Z,4.03
2019-04-22T00:28:43.791Z,4.20
2019-04-22T00:31:37.238Z,4.20
2019-04-22T00:34:06.452Z,4.70
2019-04-22T00:36:35.242Z,5.00
2019-04-22T00:39:18.979Z,4.73
2019-04-22T00:41:42.783Z,5.07
2019-04-22T00:44:13.719Z,4.90
2019-04-22T00:46:46.390Z,4.60
2019-04-22T00:49:52.736Z,5.10
2019-04-22T00:54:15.762Z,4.80
2019-04-22T00:56:40.961Z,5.07
2019-04-22T00:59:12.998Z,4.70
2019-04-22T01:01:42.928Z,5.27
2019-04-22T01:04:24.220Z,5.43
2019-04-22T01:06:49.535Z,4.90
2019-04-22T01:09:17.095Z,5.43
2019-04-22T01:11:45.396Z,5.47
2019-04-22T01:14:14.503Z,4.50
2019-04-22T01:16:52.136Z,4.87
2019-04-22T01:19:25.572Z,4.90
2019-04-22T01:22:06.797Z,5.00
2019-04-22T01:24:19.376Z,6.03
2019-04-22T01:26:43.525Z,5.03
2019-04-22T01:29:12.279Z,5.00
2019-04-22T01:31:33.055Z,5.37
2019-04-22T01:34:10.323Z,5.23
2019-04-22T01:36:48.678Z,4.93
2019-04-22T01:39:21.573Z,4.93
2019-04-22T01:41:59.804Z,5.30
2019-04-22T01:44:35.840Z,4.83
2019-04-22T01:46:58.501Z,5.00
2019-04-22T01:49:27.689Z,5.10
2019-04-22T01:54:35.366Z,4.43
2019-04-22T01:57:00.951Z,4.40
2019-04-22T01:59:19.825Z,4.60
2019-04-22T02:02:07.902Z,4.33
2019-04-22T02:04:36.784Z,4.50
2019-04-22T02:07:02.062Z,4.63
2019-04-22T02:09:38.119Z,4.90
2019-04-22T02:12:05.926Z,4.10
2019-04-22T02:17:10.835Z,3.70
2019-04-22T02:19:37.340Z,3.90
2019-04-22T02:22:07.344Z,3.90
2019-04-22T02:24:39.614Z,3.50
2019-04-22T02:27:10.995Z,3.70
2019-04-22T02:32:19.483Z,4.00
2019-04-22T02:34:50.745Z,3.50
2019-04-22T02:37:12.952Z,3.60
2019-04-22T02:39:41.050Z,3.87
2019-04-22T02:42:14.400Z,3.60
2019-04-22T02:44:42.229Z,4.10
2019-04-22T02:50:02.369Z,4.10
2019-04-22T02:52:19.965Z,4.27
2019-04-22T02:54:52.641Z,4.03
2019-04-22T02:57:30.086Z,4.13
2019-04-22T02:59:47.821Z,3.70
2019-04-22T03:02:23.496Z,3.97
2019-04-22T03:04:47.247Z,4.10
2019-04-22T03:07:17.925Z,4.17
2019-04-22T03:09:47.820Z,3.63
2019-04-22T03:12:23.650Z,4.20
2019-04-22T03:14:48.306Z,4.97
2019-04-22T03:17:20.528Z,4.23
2019-04-22T03:22:26.489Z,4.57
2019-04-22T03:27:36.865Z,4.23
2019-04-22T03:35:34.614Z,3.80
2019-04-22T03:37:52.634Z,3.70
2019-04-22T03:42:45.656Z,4.03
2019-04-22T03:45:22.396Z,3.73
2019-04-22T03:47:41.191Z,3.77
2019-04-22T03:50:20.605Z,3.57
2019-04-22T03:52:47.197Z,3.73
2019-04-22T03:55:07.714Z,4.27
2019-04-22T03:58:21.563Z,3.50
2019-04-22T04:00:17.441Z,3.73
2019-04-22T04:02:45.906Z,4.07
2019-04-22T04:05:29.550Z,4.10
2019-04-22T04:10:30.647Z,3.47
2019-04-22T04:12:51.182Z,3.50
2019-04-22T04:15:18.651Z,4.17
2019-04-22T04:17:52.042Z,3.73
2019-04-22T04:20:24.289Z,3.73
2019-04-22T04:22:59.011Z,3.67
2019-04-22T04:25:27.307Z,3.70
2019-04-22T04:28:23.055Z,3.80
2019-04-22T04:30:18.954Z,3.53
2019-04-22T04:32:55.324Z,3.60
2019-04-22T04:35:32.884Z,3.57
2019-04-22T04:37:51.881Z,3.60
2019-04-22T04:43:11.051Z,3.73
2019-04-22T04:45:31.682Z,3.70
2019-04-22T04:47:54.444Z,3.73
2019-04-22T04:50:20.536Z,3.70
2019-04-22T04:53:06.359Z,3.83
2019-04-22T04:58:04.396Z,3.67
2019-04-22T05:00:37.328Z,3.50
2019-04-22T05:03:08.174Z,3.47
2019-04-22T05:10:47.886Z,3.53
2019-04-22T05:12:56.799Z,3.20
2019-04-22T05:15:24.892Z,3.57
2019-04-22T05:18:03.754Z,3.50
2019-04-22T05:22:51.609Z,3.50
2019-04-22T05:25:25.240Z,3.20
2019-04-22T05:27:51.002Z,3.20
2019-04-22T05:30:26.592Z,3.50
2019-04-22T05:32:58.671Z,3.40
2019-04-22T05:38:04.591Z,3.40
2019-04-22T05:43:05.676Z,3.60
2019-04-22T05:45:31.453Z,3.60
2019-04-22T05:50:26.914Z,3.03
2019-04-22T05:53:14.937Z,3.20
2019-04-22T05:55:36.338Z,3.20
2019-04-22T05:58:02.729Z,3.13
2019-04-22T06:03:07.233Z,3.27
2019-04-22T06:05:35.763Z,3.30
2019-04-22T06:08:03.717Z,3.40
2019-04-22T06:11:04.379Z,3.23
2019-04-22T06:13:06.719Z,3.00
2019-04-22T06:15:34.447Z,3.40
2019-04-22T06:18:18.857Z,3.60
2019-04-22T06:20:48.842Z,3.33
2019-04-22T06:25:57.418Z,3.80
2019-04-22T06:28:26.593Z,3.30
2019-04-22T06:30:51.213Z,3.17
2019-04-22T06:33:15.295Z,2.80
2019-04-22T06:40:46.543Z,3.15
2019-04-22T06:43:15.761Z,2.90
2019-04-22T06:45:43.560Z,3.00
2019-04-22T06:48:24.017Z,2.92
2019-04-22T06:50:47.586Z,2.90
2019-04-22T06:53:16.930Z,3.30
2019-04-22T06:55:51.747Z,2.80
2019-04-22T06:58:21.789Z,3.42
2019-04-22T07:00:46.028Z,3.30
2019-04-22T07:05:52.265Z,3.40
2019-04-22T07:10:50.424Z,3.92
2019-04-22T07:13:30.416Z,4.50
2019-04-22T07:18:32.232Z,3.80
2019-04-22T07:20:59.949Z,3.90
2019-04-22T07:23:28.445Z,3.67
2019-04-22T07:26:01.069Z,3.73
2019-04-22T07:28:27.391Z,3.37
2019-04-22T07:30:58.103Z,3.10
2019-04-22T07:33:34.172Z,2.98
2019-04-22T07:36:25.433Z,2.98
2019-04-22T07:38:48.586Z,3.30
2019-04-22T07:41:12.416Z,3.23
2019-04-22T07:43:59.656Z,3.40
2019-04-22T07:46:15.081Z,3.40
2019-04-22T07:49:02.984Z,3.53
2019-04-22T07:51:25.026Z,3.37
2019-04-22T07:53:50.870Z,2.85
2019-04-22T07:56:18.832Z,2.77
2019-04-22T07:58:48.896Z,2.72
2019-04-22T08:01:24.659Z,2.30
2019-04-22T08:04:03.325Z,2.60
2019-04-22T08:06:26.294Z,2.87
2019-04-22T08:09:00.309Z,3.40
2019-04-22T08:11:42.311Z,2.95
2019-04-22T08:13:54.619Z,2.77
2019-04-22T08:16:26.249Z,3.20
2019-04-22T08:19:04.093Z,3.07
2019-04-22T08:21:23.753Z,3.30
2019-04-22T08:24:01.450Z,3.17
2019-04-22T08:26:32.248Z,3.20
2019-04-22T08:29:11.992Z,3.30
2019-04-22T08:31:35.687Z,3.70
2019-04-22T08:34:01.651Z,3.17
2019-04-22T08:36:32.351Z,3.30
2019-04-22T08:39:08.193Z,3.53
2019-04-22T08:46:40.391Z,3.02
2019-04-22T08:49:17.762Z,3.02
2019-04-22T08:51:36.242Z,2.93
2019-04-22T08:54:12.155Z,3.40
2019-04-22T08:59:12.333Z,2.83
2019-04-22T09:01:49.212Z,3.35
2019-04-22T09:04:09.999Z,3.20
2019-04-22T09:07:07.515Z,3.20
2019-04-22T09:16:44.771Z,2.58
2019-04-22T09:19:12.240Z,3.20
2019-04-22T09:21:45.697Z,3.30
2019-04-22T09:24:32.562Z,3.03
2019-04-22T09:29:20.722Z,3.30
2019-04-22T09:31:45.299Z,3.20
2019-04-22T09:34:16.539Z,3.30
2019-04-22T09:36:50.406Z,3.10
2019-04-22T09:39:28.291Z,3.00
2019-04-22T09:44:19.099Z,2.70
2019-04-22T09:46:52.325Z,2.58
2019-04-22T09:49:28.419Z,2.70
2019-04-22T09:51:54.026Z,2.62
2019-04-22T09:56:49.367Z,2.85
2019-04-22T09:59:25.268Z,3.22
2019-04-22T10:02:05.638Z,3.12
2019-04-22T10:04:18.397Z,3.05
2019-04-22T10:06:44.359Z,2.80
2019-04-22T10:09:42.849Z,3.42
2019-04-22T10:11:55.291Z,3.10
2019-04-22T10:14:24.808Z,2.80
2019-04-22T10:16:54.987Z,2.65
2019-04-22T10:19:24.976Z,2.90
2019-04-22T10:24:26.428Z,2.83
2019-04-22T10:26:57.112Z,3.20
2019-04-22T10:29:34.934Z,3.10
2019-04-22T10:32:00.773Z,2.95
2019-04-22T10:34:16.915Z,3.00
2019-04-22T10:36:37.844Z,2.67
2019-04-22T10:39:08.449Z,2.65
2019-04-22T10:41:38.738Z,2.60
2019-04-22T10:44:08.791Z,2.45
2019-04-22T10:46:37.962Z,2.92
2019-04-22T10:49:08.258Z,2.40
2019-04-22T10:51:37.232Z,2.45
2019-04-22T10:54:07.391Z,2.72
2019-04-22T10:56:36.969Z,2.37
2019-04-22T10:59:06.827Z,2.77
2019-04-22T11:01:38.380Z,2.90
2019-04-22T11:04:06.975Z,2.55
2019-04-22T11:06:42.562Z,2.58
2019-04-22T11:09:08.610Z,2.58
2019-04-22T11:11:48.765Z,2.80
2019-04-22T11:14:10.688Z,2.52
2019-04-22T11:16:39.778Z,2.65
2019-04-22T11:19:09.858Z,2.50
2019-04-22T11:21:38.745Z,2.83
2019-04-22T11:24:08.508Z,2.40
2019-04-22T11:26:38.753Z,2.70
2019-04-22T11:29:08.001Z,2.62
2019-04-22T11:31:38.614Z,2.70
2019-04-22T11:34:08.919Z,2.70
2019-04-22T11:36:38.939Z,2.22
2019-04-22T11:39:10.896Z,2.85
2019-04-22T11:41:40.114Z,2.37
2019-04-22T11:44:09.547Z,2.75
2019-04-22T11:46:39.231Z,2.52
2019-04-22T11:49:08.289Z,2.50
2019-04-22T11:51:38.062Z,2.25
2019-04-22T11:54:07.248Z,2.47
2019-04-22T11:56:36.917Z,2.22
2019-04-22T11:59:06.756Z,2.55
2019-04-22T12:01:37.018Z,2.40
2019-04-22T12:04:07.649Z,2.20
2019-04-22T12:06:37.881Z,2.67
2019-04-22T12:09:10.057Z,2.40
2019-04-22T12:11:40.487Z,2.87
2019-04-22T12:14:09.781Z,2.20
2019-04-22T12:16:39.349Z,2.42
2019-04-22T12:19:09.233Z,2.55
2019-04-22T12:21:39.221Z,2.77
2019-04-22T12:24:09.064Z,2.37
2019-04-22T12:26:38.311Z,2.40
2019-04-22T12:29:07.131Z,3.00
2019-04-22T12:31:37.557Z,2.60
2019-04-22T12:34:07.912Z,2.50
2019-04-22T12:36:38.462Z,2.67
2019-04-22T12:39:07.722Z,2.40
2019-04-22T12:41:38.049Z,2.77
2019-04-22T12:44:07.572Z,2.75
2019-04-22T12:46:36.699Z,2.55
2019-04-22T12:49:05.458Z,2.67
2019-04-22T12:51:34.464Z,2.42
2019-04-22T12:54:03.452Z,2.83
2019-04-22T12:56:33.417Z,2.67
2019-04-22T12:59:03.857Z,2.80
2019-04-22T13:01:33.137Z,2.60
2019-04-22T13:04:07.412Z,2.70
2019-04-22T13:06:32.762Z,2.90
2019-04-22T13:09:02.171Z,2.60
2019-04-22T13:11:34.864Z,2.75
2019-04-22T13:14:03.060Z,2.58
2019-04-22T13:16:33.126Z,3.05
2019-04-22T13:19:07.375Z,2.87
2019-04-22T13:21:33.828Z,3.00
2019-04-22T13:24:02.990Z,2.55
2019-04-22T13:26:35.950Z,2.60
2019-04-22T13:29:05.602Z,2.83
2019-04-22T13:31:34.996Z,3.05
2019-04-22T13:34:04.579Z,3.08
2019-04-22T13:36:34.717Z,2.65
2019-04-22T13:39:05.236Z,2.77
2019-04-22T13:41:44.026Z,3.20
2019-04-22T13:44:05.009Z,3.10
2019-04-22T13:46:35.482Z,3.05
2019-04-22T13:49:31.173Z,3.50
2019-04-22T13:56:55.479Z,2.80
2019-04-22T13:59:19.929Z,2.85
2019-04-22T14:01:58.813Z,3.40
2019-04-22T14:04:32.645Z,3.22
2019-04-22T14:07:02.894Z,3.00
2019-04-22T14:09:33.599Z,3.15
2019-04-22T14:12:05.667Z,3.00
2019-04-22T14:14:33.702Z,2.85
2019-04-22T14:17:03.030Z,3.45
2019-04-22T14:19:32.303Z,3.30
2019-04-22T14:22:05.460Z,2.87
2019-04-22T14:24:36.437Z,3.25
2019-04-22T14:27:15.149Z,3.10
2019-04-22T14:29:37.596Z,3.05
2019-04-22T14:32:14.610Z,2.70
2019-04-22T14:34:38.417Z,3.02
2019-04-22T14:37:12.026Z,3.05
2019-04-22T14:39:41.978Z,3.50
2019-04-22T14:42:28.454Z,3.00
2019-04-22T14:45:23.170Z,3.08
2019-04-22T14:47:39.676Z,2.90
2019-04-22T14:50:04.845Z,3.45
2019-04-22T14:52:38.088Z,3.27
2019-04-22T14:54:54.329Z,3.20
2019-04-22T14:57:16.923Z,3.00
2019-04-22T14:59:46.220Z,2.90
2019-04-22T15:02:16.809Z,2.83
2019-04-22T15:04:45.958Z,3.30
2019-04-22T15:07:15.174Z,3.27
2019-04-22T15:09:46.057Z,3.42
2019-04-22T15:12:30.009Z,3.45
2019-04-22T15:14:49.427Z,3.27
2019-04-22T15:17:36.832Z,3.00
2019-04-22T15:20:25.807Z,3.00
2019-04-22T15:22:55.118Z,3.17
2019-04-22T15:25:26.133Z,3.45
2019-04-22T15:27:55.453Z,3.47
2019-04-22T15:30:25.542Z,3.60
2019-04-22T15:32:59.080Z,3.20
2019-04-22T15:35:29.602Z,3.50
2019-04-22T15:38:06.910Z,3.35
2019-04-22T15:40:40.650Z,3.85
2019-04-22T15:43:10.976Z,3.08
2019-04-22T15:45:46.918Z,3.50
2019-04-22T15:48:21.197Z,3.27
2019-04-22T15:50:51.172Z,3.50
2019-04-22T15:53:22.018Z,3.40
2019-04-22T15:55:54.550Z,3.20
2019-04-22T15:58:23.998Z,3.25
2019-04-22T16:01:08.769Z,3.47
2019-04-22T16:03:36.902Z,3.62
2019-04-22T16:06:06.187Z,3.42
2019-04-22T16:08:37.309Z,3.10
2019-04-22T16:11:06.151Z,3.37
2019-04-22T16:13:38.062Z,3.12
2019-04-22T16:16:06.907Z,3.40
2019-04-22T16:18:36.230Z,3.30
2019-04-22T16:21:06.970Z,3.27
2019-04-22T16:23:46.625Z,3.25
2019-04-22T16:26:24.260Z,3.67
2019-04-22T16:28:55.890Z,3.08
2019-04-22T16:31:25.098Z,3.20
2019-04-22T16:33:54.496Z,3.60
2019-04-22T16:36:24.791Z,3.20
2019-04-22T16:38:55.422Z,3.47
2019-04-22T16:41:24.617Z,3.33
2019-04-22T16:43:54.276Z,3.20
2019-04-22T16:46:23.549Z,3.47
2019-04-22T16:48:53.817Z,2.87
2019-04-22T16:51:24.307Z,3.40
2019-04-22T16:53:53.959Z,3.37
2019-04-22T16:56:22.983Z,3.42
2019-04-22T16:58:52.698Z,3.58
2019-04-22T17:02:00.873Z,3.70
2019-04-22T17:04:48.623Z,3.35
2019-04-22T17:07:20.428Z,3.55
2019-04-22T17:09:50.003Z,3.55
2019-04-22T17:12:19.784Z,3.37
2019-04-22T17:14:54.756Z,3.52
2019-04-22T17:17:20.207Z,3.65
2019-04-22T17:19:49.372Z,3.60
2019-04-22T17:22:19.601Z,3.20
2019-04-22T17:24:49.918Z,3.30
2019-04-22T17:27:20.110Z,3.60
2019-04-22T17:29:50.465Z,3.33
2019-04-22T17:32:22.718Z,3.08
2019-04-22T17:34:51.698Z,3.45
2019-04-22T17:37:26.277Z,3.45
2019-04-22T17:40:10.180Z,3.85
2019-04-22T17:42:41.936Z,3.70
2019-04-22T17:45:27.110Z,3.40
2019-04-22T17:48:15.606Z,2.75
2019-04-22T17:50:53.910Z,3.37
2019-04-22T17:53:27.225Z,3.35
2019-04-22T17:55:55.301Z,3.62
2019-04-22T17:58:25.601Z,3.33
2019-04-22T18:00:52.005Z,3.67
2019-04-22T18:03:16.171Z,3.40
2019-04-22T18:05:41.573Z,3.12
2019-04-22T18:08:25.477Z,3.37
2019-04-22T18:10:56.309Z,3.25
2019-04-22T18:13:34.969Z,3.55
2019-04-22T18:15:53.040Z,3.60
2019-04-22T18:18:32.836Z,3.42
2019-04-22T18:20:52.122Z,3.20
2019-04-22T18:23:14.525Z,3.50
2019-04-22T18:26:00.376Z,3.17
2019-04-22T18:28:30.562Z,3.30
2019-04-22T18:30:56.970Z,3.30
2019-04-22T18:33:31.686Z,3.27
2019-04-22T18:36:02.650Z,3.20
2019-04-22T18:38:42.420Z,3.52
2019-04-22T18:41:02.393Z,3.40
2019-04-22T18:43:33.005Z,3.45
2019-04-22T18:48:35.013Z,4.25
2019-04-22T18:51:17.236Z,3.58
2019-04-22T18:54:06.171Z,3.42
2019-04-22T18:56:37.639Z,3.55
2019-04-22T18:59:00.934Z,3.52
2019-04-22T19:01:19.950Z,3.15
2019-04-22T19:03:58.151Z,3.50
2019-04-22T19:06:55.580Z,3.47
2019-04-22T19:09:17.029Z,3.62
2019-04-22T19:11:51.728Z,3.45
2019-04-22T19:14:10.425Z,3.83
2019-04-22T19:17:05.595Z,3.60
2019-04-22T19:21:46.890Z,3.72
2019-04-22T19:24:10.696Z,3.60
2019-04-22T19:29:18.654Z,4.00
2019-04-22T19:31:49.742Z,4.30
2019-04-22T19:34:17.335Z,3.98
2019-04-22T19:36:51.614Z,3.87
2019-04-22T19:39:12.066Z,3.70
2019-04-22T19:41:53.666Z,3.80
2019-04-22T19:44:19.689Z,3.80
2019-04-22T19:47:10.779Z,3.98
2019-04-22T19:52:02.096Z,3.75
2019-04-22T19:54:19.087Z,3.52
2019-04-22T19:56:42.916Z,4.28
2019-04-22T19:59:19.234Z,4.05
2019-04-22T20:02:20.163Z,4.65
2019-04-22T20:05:11.014Z,4.58
2019-04-22T20:07:45.861Z,4.22
2019-04-22T20:10:16.180Z,4.00
2019-04-22T20:12:42.564Z,4.30
2019-04-22T20:15:15.162Z,4.40
2019-04-22T20:18:11.413Z,4.45
2019-04-22T20:20:25.951Z,4.92
2019-04-22T20:22:44.881Z,4.37
2019-04-22T20:25:08.617Z,4.83
2019-04-22T20:27:47.571Z,4.95
2019-04-22T20:30:23.457Z,4.70
2019-04-22T20:32:47.373Z,4.22
2019-04-22T20:35:26.519Z,4.10
2019-04-22T20:37:52.897Z,4.80
2019-04-22T20:40:25.328Z,4.00
2019-04-22T20:43:01.685Z,4.72
2019-04-22T20:45:30.931Z,4.58
2019-04-22T20:47:49.012Z,4.50
2019-04-22T20:50:31.097Z,4.37
2019-04-22T20:52:59.073Z,4.65
2019-04-22T20:55:20.558Z,4.83
2019-04-22T20:57:57.911Z,4.55
2019-04-22T21:00:26.251Z,4.55
2019-04-22T21:02:49.797Z,4.40
2019-04-22T21:05:23.385Z,4.70
2019-04-22T21:08:08.374Z,4.93
2019-04-22T21:10:25.578Z,4.53
2019-04-22T21:13:00.243Z,5.60
2019-04-22T21:15:42.457Z,5.08
2019-04-22T21:18:01.183Z,4.87
2019-04-22T21:20:41.426Z,4.80
2019-04-22T21:23:06.019Z,5.33
2019-04-22T21:25:26.352Z,5.40
2019-04-22T21:28:09.988Z,5.00
2019-04-22T21:30:37.525Z,4.97
2019-04-22T21:33:05.526Z,5.67
2019-04-22T21:35:58.005Z,5.40
2019-04-22T21:38:14.878Z,5.20
2019-04-22T21:40:39.517Z,5.03
2019-04-22T21:43:16.312Z,4.60
2019-04-22T21:45:35.355Z,4.93
2019-04-22T21:48:22.580Z,4.43
2019-04-22T21:50:48.095Z,4.47
2019-04-22T21:53:16.478Z,4.43
2019-04-22T21:55:50.783Z,4.60
2019-04-22T21:58:43.377Z,5.15
2019-04-22T22:01:53.545Z,5.03
2019-04-22T22:04:17.548Z,4.83
2019-04-22T22:06:40.402Z,4.67
2019-04-22T22:09:20.373Z,4.23
2019-04-22T22:11:51.086Z,4.80
2019-04-22T22:14:16.969Z,4.85
2019-04-22T22:16:44.636Z,4.47
2019-04-22T22:19:18.654Z,4.87
2019-04-22T22:21:58.628Z,4.97
2019-04-22T22:24:23.158Z,5.00
2019-04-22T22:27:11.029Z,5.20
2019-04-22T22:29:36.718Z,4.43
2019-04-22T22:31:58.075Z,5.05
2019-04-22T22:34:24.821Z,4.97
2019-04-22T22:36:50.431Z,5.03
2019-04-22T22:39:21.736Z,4.78
2019-04-22T22:41:39.536Z,5.03
2019-04-22T22:44:18.492Z,4.23
2019-04-22T22:46:57.828Z,4.80
2019-04-22T22:49:35.788Z,4.30
2019-04-22T22:52:24.806Z,4.73
2019-04-22T22:54:34.968Z,4.97
2019-04-22T22:57:09.851Z,4.87
2019-04-22T22:59:33.153Z,4.97
2019-04-22T23:02:03.167Z,4.73
2019-04-22T23:07:14.279Z,5.30
2019-04-22T23:09:36.759Z,4.63
2019-04-22T23:12:31.691Z,5.03
2019-04-22T23:14:37.178Z,4.87
2019-04-22T23:16:51.311Z,4.50
2019-04-22T23:19:15.765Z,5.20
2019-04-22T23:21:49.645Z,5.17
2019-04-22T23:24:50.209Z,4.33
2019-04-22T23:27:27.342Z,4.80
2019-04-22T23:30:14.541Z,4.77
2019-04-22T23:32:44.116Z,5.07
2019-04-22T23:35:47.001Z,4.93
2019-04-22T23:38:16.485Z,5.13
2019-04-22T23:40:47.272Z,5.13
2019-04-22T23:43:27.324Z,4.70
2019-04-22T23:45:57.846Z,4.57
2019-04-22T23:48:22.274Z,4.85
2019-04-22T23:50:55.638Z,4.90
2019-04-22T23:53:47.457Z,4.57
2019-04-22T23:56:03.181Z,4.30
2019-04-22T23:58:47.052Z,5.10
